Lake Alfred, Florida
Current Conditions -  °F | °C
As of 3:53 AM on Wednesday 28 Jan 2015 (Local Time) from KGIF Reporting Station
Clear Clear  
Wind Chill: 50°   Ceiling: Unl
Heat Index: 50°   Visibility: 10mi
Dew Point: 44°   Wind: 10mph
Humidity: 80%   Direction: 350°N
Pressure: 30.1"   Gusts: NA
Location:  28.09°N, 81.72°W
Report Text: KGIF 280853Z AUTO 35009KT 10SM CLR 10/07 A3010 RMK AO2 SLP192 T01000067 53004
Loading
Personal Weather Stations






























Interactive Weather Map New forecast layout! Learn more

10-Day Weather Forecast

Advertisements
Track Severe Weather on mobile